Time;durP1;ratioP1;P1;durP2;ratioP2;P2;SDS_P1;SDS_P2;PMS_P1;PMS_P2;Temp;Humidity;BMP_temperature;BMP_pressure;BME280_temperature;BME280_humidity;BME280_pressure;Samples;Min_cycle;Max_cycle;Signal;HPM_P1;HPM_P2
2022/06/25 07:19:10;;;;;;;;;;;26.20;99.90;;;;;;5121155;23;19926;-83
2022/06/25 07:21:37;;;;;;;;;;;26.20;99.90;;;;;;4995401;28;20265;-82
2022/06/25 07:24:04;;;;;;;;;;;26.20;99.90;;;;;;4998545;28;20013;-81
2022/06/25 07:26:30;;;;;;;;;;;26.20;99.90;;;;;;4997538;28;19957;-82
2022/06/25 07:28:57;;;;;;;;;;;26.20;99.90;;;;;;4995011;28;19944;-82
2022/06/25 07:31:23;;;;;;;;;;;26.20;99.90;;;;;;4995619;28;20013;-81
2022/06/25 07:33:50;;;;;;;;;;;26.20;99.90;;;;;;4997657;28;19965;-81
2022/06/25 07:36:18;;;;;;;;;;;26.20;99.90;;;;;;4995624;28;20016;-81
2022/06/25 07:38:45;;;;;;;;;;;26.20;99.90;;;;;;4995034;28;20370;-81
2022/06/25 07:41:11;;;;;;;;;;;26.20;99.90;;;;;;4995465;28;19925;-81
2022/06/25 07:43:38;;;;;;;;;;;26.30;99.90;;;;;;4995843;28;20012;-81
2022/06/25 07:46:05;;;;;;;;;;;26.20;99.90;;;;;;4995234;28;19928;-81
2022/06/25 07:48:32;;;;;;;;;;;26.20;99.90;;;;;;4996002;28;20030;-81
2022/06/25 07:53:44;;;;;;;;;;;26.30;99.90;;;;;;4997925;28;19965;-81
2022/06/25 07:56:10;;;;;;;;;;;26.30;99.90;;;;;;4997042;28;19921;-79
2022/06/25 07:58:37;;;;;;;;;;;26.20;99.90;;;;;;4998829;28;20278;-80
2022/06/25 08:01:04;;;;;;;;;;;26.20;99.90;;;;;;5000393;28;20004;-80
2022/06/25 08:03:31;;;;;;;;;;;26.20;99.90;;;;;;5001509;28;19985;-83
2022/06/25 08:05:59;;;;;;;;;;;26.20;99.90;;;;;;4999987;28;19926;-84
2022/06/25 08:08:26;;;;;;;;;;;26.10;99.90;;;;;;4998718;28;20357;-85
2022/06/25 08:10:54;;;;;;;;;;;25.90;99.90;;;;;;5000805;28;19960;-83
2022/06/25 08:13:22;;;;;;;;;;;25.80;99.90;;;;;;5000990;28;19922;-85
2022/06/25 08:15:49;;;;;;;;;;;25.80;99.90;;;;;;4996101;28;20358;-81
2022/06/25 08:18:16;;;;;;;;;;;25.70;99.90;;;;;;4995936;28;20024;-83
2022/06/25 08:20:42;;;;;;;;;;;25.60;99.90;;;;;;4994630;28;19922;-83
2022/06/25 08:23:09;;;;;;;;;;;25.60;99.90;;;;;;4995072;28;20333;-83
2022/06/25 08:25:36;;;;;;;;;;;25.50;99.90;;;;;;4996326;28;19921;-80
2022/06/25 08:28:05;;;;;;;;;;;25.50;99.90;;;;;;4995395;28;19961;-83
2022/06/25 08:30:31;;;;;;;;;;;25.50;99.90;;;;;;4994602;28;19972;-82
2022/06/25 08:32:58;;;;;;;;;;;25.50;99.90;;;;;;4995135;28;19928;-82
2022/06/25 08:35:25;;;;;;;;;;;25.40;99.90;;;;;;4994394;28;19996;-83
2022/06/25 08:37:51;;;;;;;;;;;25.40;99.90;;;;;;4994635;28;19944;-83
2022/06/25 08:40:19;;;;;;;;;;;25.40;99.90;;;;;;4994642;28;19944;-83
2022/06/25 08:42:47;;;;;;;;;;;25.40;99.30;;;;;;4994367;28;20009;-82
2022/06/25 08:45:16;;;;;;;;;;;25.40;98.40;;;;;;4994614;28;19922;-82
2022/06/25 08:47:46;;;;;;;;;;;25.30;97.00;;;;;;4994316;28;19925;-85
2022/06/25 08:50:15;;;;;;;;;;;25.30;96.30;;;;;;4995920;28;19928;-86
2022/06/25 08:52:46;;;;;;;;;;;25.30;95.40;;;;;;4994812;28;20397;-86
2022/06/25 08:55:15;;;;;;;;;;;25.20;94.60;;;;;;4994612;28;19921;-85
2022/06/25 08:57:42;;;;;;;;;;;25.20;94.40;;;;;;4994362;28;19922;-86
2022/06/25 09:00:12;;;;;;;;;;;25.30;94.20;;;;;;4994379;28;20020;-86
2022/06/25 09:02:40;;;;;;;;;;;25.30;93.70;;;;;;4994527;28;19922;-84
2022/06/25 09:05:08;;;;;;;;;;;25.30;93.30;;;;;;4994401;28;20106;-87
2022/06/25 09:07:35;;;;;;;;;;;25.30;92.90;;;;;;4994801;28;20336;-84
2022/06/25 09:10:01;;;;;;;;;;;25.40;92.70;;;;;;4999176;28;19929;-80
2022/06/25 09:12:28;;;;;;;;;;;25.40;92.40;;;;;;5007043;28;19961;-80
2022/06/25 09:14:55;;;;;;;;;;;25.40;92.10;;;;;;5000864;28;20292;-84
2022/06/25 09:17:22;;;;;;;;;;;25.40;91.80;;;;;;5003283;28;19922;-82
2022/06/25 09:19:50;;;;;;;;;;;25.50;91.70;;;;;;5001619;28;19968;-87
2022/06/25 09:22:18;;;;;;;;;;;25.50;91.40;;;;;;4999721;28;20008;-82
2022/06/25 09:24:47;;;;;;;;;;;25.60;91.20;;;;;;5001332;28;20444;-80
2022/06/25 09:27:14;;;;;;;;;;;25.60;91.00;;;;;;5001349;28;19927;-81
2022/06/25 09:29:42;;;;;;;;;;;25.60;90.80;;;;;;5003908;28;20012;-81
2022/06/25 09:32:10;;;;;;;;;;;25.60;90.80;;;;;;5002604;28;19922;-80
2022/06/25 09:34:37;;;;;;;;;;;25.70;90.70;;;;;;5003266;28;19977;-80
2022/06/25 09:37:22;;;;;;;;;;;25.70;90.50;;;;;;5004180;28;19922;-82
2022/06/25 09:39:49;;;;;;;;;;;25.70;90.50;;;;;;5000862;28;20008;-79
2022/06/25 09:42:26;;;;;;;;;;;25.80;90.20;;;;;;5000915;28;19980;-79
2022/06/25 09:45:02;;;;;;;;;;;25.80;90.00;;;;;;5000919;28;19929;-80
2022/06/25 09:47:29;;;;;;;;;;;25.80;89.60;;;;;;5000104;28;19977;-77
2022/06/25 09:50:03;;;;;;;;;;;25.80;89.20;;;;;;4998698;28;20004;-79
2022/06/25 09:52:31;;;;;;;;;;;25.80;88.90;;;;;;4998849;28;20008;-80
2022/06/25 09:54:58;;;;;;;;;;;25.80;88.40;;;;;;4998898;28;20104;-81
2022/06/25 09:57:24;;;;;;;;;;;25.80;88.00;;;;;;5000274;28;19968;-81
2022/06/25 10:00:10;;;;;;;;;;;25.80;87.70;;;;;;5000244;28;19975;-82
2022/06/25 10:02:37;;;;;;;;;;;25.80;87.60;;;;;;4998783;28;19929;-81
2022/06/25 10:05:07;;;;;;;;;;;25.80;87.40;;;;;;4999322;28;20427;-81
2022/06/25 10:10:21;;;;;;;;;;;25.80;87.00;;;;;;4999645;28;20075;-81
2022/06/25 10:12:49;;;;;;;;;;;25.80;87.10;;;;;;4998420;28;19922;-80
2022/06/25 10:15:17;;;;;;;;;;;25.90;87.30;;;;;;4999336;28;20016;-80
2022/06/25 10:17:44;;;;;;;;;;;25.90;87.00;;;;;;4999554;28;19929;-80
2022/06/25 10:20:11;;;;;;;;;;;25.90;87.00;;;;;;4997872;28;20036;-81
2022/06/25 10:22:40;;;;;;;;;;;25.90;87.30;;;;;;5000451;28;19922;-81
2022/06/25 10:25:08;;;;;;;;;;;25.90;86.80;;;;;;4999437;28;20000;-82
2022/06/25 10:27:38;;;;;;;;;;;25.90;86.80;;;;;;4998683;28;20345;-82
2022/06/25 10:30:05;;;;;;;;;;;26.00;86.90;;;;;;4999828;28;19991;-82
2022/06/25 10:32:34;;;;;;;;;;;26.00;86.80;;;;;;5000903;28;20020;-82
2022/06/25 10:35:02;;;;;;;;;;;26.00;86.70;;;;;;5001170;28;19921;-82
2022/06/25 10:37:28;;;;;;;;;;;26.00;86.50;;;;;;5001373;28;20293;-82
2022/06/25 10:39:57;;;;;;;;;;;26.00;86.40;;;;;;5001969;28;20008;-82
2022/06/25 10:45:29;;;;;;;;;;;26.00;86.20;;;;;;5000919;28;19924;-82
2022/06/25 10:47:58;;;;;;;;;;;26.00;86.10;;;;;;4998547;28;19928;-82
2022/06/25 10:50:29;;;;;;;;;;;26.00;86.00;;;;;;4998612;28;19921;-82
2022/06/25 10:53:23;;;;;;;;;;;26.00;85.70;;;;;;4998569;28;19928;-82
2022/06/25 10:56:15;;;;;;;;;;;26.10;85.70;;;;;;4963201;28;19981;-82
2022/06/25 10:58:43;;;;;;;;;;;26.10;85.70;;;;;;4984305;28;19926;-82
2022/06/25 11:01:19;;;;;;;;;;;26.10;85.80;;;;;;4998446;28;19921;-82
2022/06/25 11:03:51;;;;;;;;;;;26.10;85.80;;;;;;4997828;28;19972;-82
2022/06/25 11:06:19;;;;;;;;;;;26.10;85.70;;;;;;4997600;28;20016;-83
2022/06/25 11:08:46;;;;;;;;;;;26.10;85.70;;;;;;4996828;28;19922;-83
2022/06/25 11:11:13;;;;;;;;;;;26.10;85.60;;;;;;4997301;28;19922;-83
2022/06/25 11:13:40;;;;;;;;;;;26.10;85.30;;;;;;4997923;28;19976;-82
2022/06/25 11:16:13;;;;;;;;;;;26.10;85.10;;;;;;4999178;28;20020;-82
2022/06/25 11:18:47;;;;;;;;;;;26.10;84.80;;;;;;5000177;28;19985;-82
2022/06/25 11:21:25;;;;;;;;;;;26.10;84.70;;;;;;4999226;28;19929;-83
2022/06/25 11:23:51;;;;;;;;;;;26.10;84.60;;;;;;4998984;28;19922;-83
2022/06/25 11:29:04;;;;;;;;;;;26.10;84.30;;;;;;5001915;28;19944;-83
2022/06/25 11:31:43;;;;;;;;;;;;;;;;;;;;;
2022/06/25 11:34:16;;;;;;;;;;;26.10;84.10;;;;;;4998889;28;19922;-83
2022/06/25 11:36:43;;;;;;;;;;;26.10;84.00;;;;;;4998047;28;20385;-83
2022/06/25 11:39:10;;;;;;;;;;;26.20;83.90;;;;;;4999299;28;19961;-82
2022/06/25 11:41:37;;;;;;;;;;;26.20;83.60;;;;;;4999644;28;19928;-82
2022/06/25 11:44:05;;;;;;;;;;;26.10;83.50;;;;;;4999140;28;20012;-82
2022/06/25 11:46:33;;;;;;;;;;;26.20;83.50;;;;;;4997483;28;19922;-81
2022/06/25 11:49:00;;;;;;;;;;;26.10;83.30;;;;;;4996938;28;19981;-83
2022/06/25 11:51:28;;;;;;;;;;;26.20;83.20;;;;;;4997784;28;20024;-83
2022/06/25 11:53:54;;;;;;;;;;;26.20;83.20;;;;;;4996555;28;19928;-82
2022/06/25 11:56:21;;;;;;;;;;;26.20;83.10;;;;;;4999066;28;20424;-82
2022/06/25 11:58:48;;;;;;;;;;;26.20;83.00;;;;;;4997920;28;20020;-82
2022/06/25 12:01:15;;;;;;;;;;;26.20;82.90;;;;;;4998956;28;20004;-82
2022/06/25 12:03:41;;;;;;;;;;;26.20;82.80;;;;;;4998388;28;19943;-82
2022/06/25 12:06:10;;;;;;;;;;;26.20;82.80;;;;;;4998078;28;19922;-81
2022/06/25 12:08:38;;;;;;;;;;;26.20;82.80;;;;;;4997209;28;19928;-82
2022/06/25 12:11:05;;;;;;;;;;;26.20;82.70;;;;;;4997113;28;20373;-82
2022/06/25 12:13:32;;;;;;;;;;;26.20;82.60;;;;;;4997435;28;19922;-82
2022/06/25 12:15:59;;;;;;;;;;;26.20;82.50;;;;;;4997544;28;19922;-82
2022/06/25 12:18:32;;;;;;;;;;;26.20;82.50;;;;;;4996839;28;19922;-84
2022/06/25 12:21:00;;;;;;;;;;;26.20;82.40;;;;;;4995856;28;19945;-85
2022/06/25 12:23:26;;;;;;;;;;;26.20;82.30;;;;;;4994873;28;19968;-86
2022/06/25 12:25:54;;;;;;;;;;;26.20;82.30;;;;;;4995320;28;20008;-86
2022/06/25 12:28:34;;;;;;;;;;;26.20;82.30;;;;;;4995490;28;20016;-82
2022/06/25 12:31:08;;;;;;;;;;;26.20;82.30;;;;;;4996939;28;19928;-83
2022/06/25 12:33:35;;;;;;;;;;;26.20;82.20;;;;;;4996129;28;19984;-82
2022/06/25 12:36:01;;;;;;;;;;;26.20;82.10;;;;;;4996807;28;20013;-83
2022/06/25 15:01:00;;;;;;;;;;;26.40;81.00;;;;;;5843282;23;19957;-87
2022/06/25 15:03:27;;;;;;;;;;;26.40;81.00;;;;;;4996753;28;20005;-87
2022/06/25 15:05:54;;;;;;;;;;;26.40;81.00;;;;;;4995813;28;19969;-86
2022/06/25 15:08:21;;;;;;;;;;;26.40;81.00;;;;;;4995893;28;19921;-87
2022/06/25 15:10:47;;;;;;;;;;;26.40;81.00;;;;;;4994935;28;20012;-87
2022/06/25 15:13:14;;;;;;;;;;;26.40;81.00;;;;;;4995529;28;20436;-87
2022/06/25 15:15:41;;;;;;;;;;;26.40;81.00;;;;;;4995686;28;19968;-87
2022/06/25 15:18:09;;;;;;;;;;;26.40;81.00;;;;;;4995313;28;19921;-87
2022/06/25 15:20:36;;;;;;;;;;;26.40;81.10;;;;;;4995431;28;19928;-87
2022/06/25 15:23:02;;;;;;;;;;;26.40;81.00;;;;;;5019111;23;20016;-83
2022/06/25 15:25:29;;;;;;;;;;;26.40;81.10;;;;;;4997388;28;19921;-82
2022/06/25 15:27:56;;;;;;;;;;;26.30;81.00;;;;;;4996553;28;20365;-82
2022/06/25 15:30:23;;;;;;;;;;;26.30;81.00;;;;;;4999594;28;19928;-82
2022/06/25 15:32:50;;;;;;;;;;;26.30;81.00;;;;;;4999202;28;19977;-82
2022/06/25 15:35:18;;;;;;;;;;;26.30;81.00;;;;;;5001646;28;19921;-81
2022/06/25 15:37:45;;;;;;;;;;;26.30;81.00;;;;;;4996187;28;19922;-83
2022/06/25 15:40:12;;;;;;;;;;;26.30;81.00;;;;;;4995729;28;20012;-82
2022/06/25 15:42:39;;;;;;;;;;;26.30;80.90;;;;;;4995079;28;19928;-83
2022/06/25 15:45:06;;;;;;;;;;;26.30;80.80;;;;;;4994656;28;20389;-83
2022/06/25 15:47:33;;;;;;;;;;;26.30;80.80;;;;;;4999473;28;19945;-80
2022/06/25 15:49:59;;;;;;;;;;;26.30;80.70;;;;;;5002527;28;20389;-81
2022/06/25 15:52:27;;;;;;;;;;;26.30;80.60;;;;;;5002960;28;20012;-81
2022/06/25 15:54:54;;;;;;;;;;;26.30;80.50;;;;;;5002953;28;20036;-82
2022/06/25 15:57:21;;;;;;;;;;;26.20;80.30;;;;;;5002315;28;19925;-81
2022/06/25 15:59:48;;;;;;;;;;;26.20;80.20;;;;;;5001518;28;19989;-81
2022/06/25 16:02:14;;;;;;;;;;;26.20;80.00;;;;;;5000472;28;20312;-81
2022/06/25 16:04:41;;;;;;;;;;;26.20;80.00;;;;;;5001244;28;19928;-81
2022/06/25 16:07:08;;;;;;;;;;;26.20;80.00;;;;;;5000319;28;19925;-82
2022/06/25 16:09:36;;;;;;;;;;;26.20;80.00;;;;;;4999353;28;19922;-82
2022/06/25 16:12:04;;;;;;;;;;;26.20;80.00;;;;;;5000099;28;20325;-81
2022/06/25 16:14:31;;;;;;;;;;;26.20;80.00;;;;;;5000448;28;20348;-82
2022/06/25 16:16:58;;;;;;;;;;;26.20;80.00;;;;;;4998688;28;19960;-82
2022/06/25 16:19:24;;;;;;;;;;;26.20;80.00;;;;;;4996015;28;20428;-82
2022/06/25 16:21:53;;;;;;;;;;;26.20;80.00;;;;;;5000033;28;20381;-82
2022/06/25 16:24:22;;;;;;;;;;;26.20;79.90;;;;;;5000368;28;19993;-82
2022/06/25 16:26:50;;;;;;;;;;;26.20;79.70;;;;;;5001475;28;20008;-82
2022/06/25 16:29:19;;;;;;;;;;;26.20;79.60;;;;;;5001807;28;19926;-82
2022/06/25 16:31:46;;;;;;;;;;;26.20;79.40;;;;;;5001215;28;19922;-82
2022/06/25 16:34:13;;;;;;;;;;;26.20;79.20;;;;;;5001845;28;19922;-80
2022/06/25 16:36:40;;;;;;;;;;;26.20;78.80;;;;;;5001822;28;19922;-82
2022/06/25 16:39:07;;;;;;;;;;;26.20;78.70;;;;;;5002868;28;20399;-80
2022/06/25 16:41:34;;;;;;;;;;;26.20;78.60;;;;;;5001207;28;19928;-81
2022/06/25 16:44:04;;;;;;;;;;;26.10;78.40;;;;;;5003269;28;20321;-81
2022/06/25 16:46:32;;;;;;;;;;;26.20;78.30;;;;;;5003143;28;19921;-82
2022/06/25 16:48:59;;;;;;;;;;;26.20;78.10;;;;;;5001758;28;20460;-81
2022/06/25 16:51:25;;;;;;;;;;;26.20;78.00;;;;;;5002060;28;19957;-81
2022/06/25 16:53:52;;;;;;;;;;;26.20;77.90;;;;;;5000145;28;19922;-82
2022/06/25 16:56:19;;;;;;;;;;;26.20;77.70;;;;;;5000111;28;19922;-82
2022/06/25 16:58:46;;;;;;;;;;;26.20;77.60;;;;;;4999653;28;19921;-83
2022/06/25 17:01:14;;;;;;;;;;;26.10;77.30;;;;;;4998795;28;20369;-83
2022/06/25 17:03:41;;;;;;;;;;;26.10;77.10;;;;;;4998950;28;19929;-83
2022/06/25 17:06:08;;;;;;;;;;;26.10;77.00;;;;;;4998592;28;19922;-82
2022/06/25 17:08:35;;;;;;;;;;;26.10;76.90;;;;;;4998766;28;19928;-82
2022/06/25 17:11:01;;;;;;;;;;;26.10;76.70;;;;;;4998753;28;19922;-82
2022/06/25 17:13:28;;;;;;;;;;;26.10;76.60;;;;;;4998409;28;19926;-82
2022/06/25 17:15:55;;;;;;;;;;;26.10;76.40;;;;;;4998421;28;19922;-82
2022/06/25 17:18:23;;;;;;;;;;;26.10;76.20;;;;;;4997975;28;20008;-82
2022/06/25 17:20:49;;;;;;;;;;;26.10;76.00;;;;;;4997566;28;19922;-82
2022/06/25 17:23:16;;;;;;;;;;;26.10;75.90;;;;;;4998015;28;19932;-82
2022/06/25 17:25:44;;;;;;;;;;;26.10;75.70;;;;;;4997501;28;20400;-82
2022/06/25 17:28:10;;;;;;;;;;;26.10;75.50;;;;;;4999020;28;20309;-82
2022/06/25 17:30:37;;;;;;;;;;;26.10;75.20;;;;;;5000790;28;19928;-81
2022/06/25 17:33:04;;;;;;;;;;;26.10;75.00;;;;;;5000601;28;20013;-82
2022/06/25 17:35:32;;;;;;;;;;;26.10;75.60;;;;;;4999515;28;19968;-82
2022/06/25 17:38:00;;;;;;;;;;;26.10;74.60;;;;;;4999399;28;20004;-82
2022/06/25 17:40:28;;;;;;;;;;;26.00;74.00;;;;;;4998496;28;19922;-82
2022/06/25 17:42:55;;;;;;;;;;;26.00;73.90;;;;;;4997779;28;20012;-82
2022/06/25 17:45:22;;;;;;;;;;;26.00;73.90;;;;;;4998175;28;19921;-83
2022/06/25 17:47:49;;;;;;;;;;;26.00;73.90;;;;;;4998497;28;20337;-83
2022/06/25 17:50:16;;;;;;;;;;;26.00;73.80;;;;;;4998141;28;19932;-83
2022/06/25 17:52:44;;;;;;;;;;;26.00;74.20;;;;;;4998839;28;19977;-83
2022/06/25 17:55:12;;;;;;;;;;;26.00;73.20;;;;;;4998508;28;19964;-84
2022/06/25 17:57:39;;;;;;;;;;;26.00;72.90;;;;;;4998815;28;19921;-84
2022/06/25 18:00:07;;;;;;;;;;;26.00;72.60;;;;;;4998499;28;20392;-84
2022/06/25 18:02:34;;;;;;;;;;;26.00;72.40;;;;;;4999232;28;19976;-84
2022/06/25 18:05:01;;;;;;;;;;;26.00;72.10;;;;;;4998914;28;19928;-84
2022/06/25 18:07:28;;;;;;;;;;;26.00;71.90;;;;;;4997643;28;20452;-84
2022/06/25 18:09:56;;;;;;;;;;;26.00;71.70;;;;;;4999397;28;20456;-81
2022/06/25 18:12:22;;;;;;;;;;;26.00;71.50;;;;;;5001089;28;20304;-82
2022/06/25 18:14:49;;;;;;;;;;;25.90;71.30;;;;;;5002015;28;19929;-82
2022/06/25 18:17:17;;;;;;;;;;;26.00;71.10;;;;;;5001180;28;20288;-82
2022/06/25 18:19:43;;;;;;;;;;;25.90;70.80;;;;;;5001227;28;19928;-82
2022/06/25 18:22:10;;;;;;;;;;;26.00;70.80;;;;;;5001109;28;20420;-81
2022/06/25 18:24:37;;;;;;;;;;;26.00;70.70;;;;;;4999166;28;19929;-80
2022/06/25 18:27:05;;;;;;;;;;;26.00;70.50;;;;;;4999003;28;20389;-79
2022/06/25 18:29:32;;;;;;;;;;;25.90;70.40;;;;;;4998753;28;19976;-82
2022/06/25 18:31:59;;;;;;;;;;;26.00;70.30;;;;;;4997104;28;19921;-85
2022/06/25 18:34:26;;;;;;;;;;;26.00;70.20;;;;;;4997395;28;19928;-84
2022/06/25 18:36:52;;;;;;;;;;;26.00;70.00;;;;;;5000384;28;19922;-81
2022/06/25 18:39:20;;;;;;;;;;;26.00;70.00;;;;;;4999337;28;20012;-85
2022/06/25 18:41:49;;;;;;;;;;;26.00;69.90;;;;;;4996636;28;19921;-87
2022/06/25 18:44:17;;;;;;;;;;;26.00;69.80;;;;;;4998620;28;19925;-87
2022/06/25 18:46:45;;;;;;;;;;;26.00;69.70;;;;;;4996606;28;19928;-88
2022/06/25 18:49:12;;;;;;;;;;;26.00;69.60;;;;;;4996008;28;19969;-86
2022/06/25 18:51:38;;;;;;;;;;;26.00;69.60;;;;;;4996481;28;20012;-85
2022/06/25 18:54:06;;;;;;;;;;;26.00;69.50;;;;;;4996540;28;20028;-85
2022/06/25 18:56:33;;;;;;;;;;;26.00;69.50;;;;;;4996058;28;19928;-85
2022/06/25 18:58:59;;;;;;;;;;;26.00;69.50;;;;;;4996232;28;19921;-86
2022/06/25 19:01:28;;;;;;;;;;;26.00;69.40;;;;;;4996151;28;20377;-85
2022/06/25 19:03:54;;;;;;;;;;;26.00;69.30;;;;;;4996812;28;20016;-83
2022/06/25 19:06:21;;;;;;;;;;;26.00;69.20;;;;;;5000276;28;20021;-79
2022/06/25 19:08:48;;;;;;;;;;;26.00;69.20;;;;;;4998575;28;20007;-79
2022/06/25 19:11:15;;;;;;;;;;;26.00;69.20;;;;;;4998252;28;20284;-81
2022/06/25 19:13:48;;;;;;;;;;;26.00;69.10;;;;;;5001054;28;20012;-82
2022/06/25 19:16:15;;;;;;;;;;;26.00;69.20;;;;;;4999756;28;20020;-81
2022/06/25 19:18:43;;;;;;;;;;;26.00;69.50;;;;;;5001523;28;20504;-81
2022/06/25 19:21:12;;;;;;;;;;;26.00;69.50;;;;;;5000184;28;19921;-86
2022/06/25 19:23:39;;;;;;;;;;;26.00;69.70;;;;;;5000129;28;19976;-83
2022/06/25 19:26:06;;;;;;;;;;;26.00;69.80;;;;;;4999351;28;19985;-84
2022/06/25 19:28:33;;;;;;;;;;;26.00;69.90;;;;;;5000226;28;19969;-84
2022/06/25 19:30:59;;;;;;;;;;;26.10;70.10;;;;;;4998755;28;20375;-86
2022/06/25 19:33:26;;;;;;;;;;;26.10;70.20;;;;;;4997206;28;19953;-86
2022/06/25 19:35:54;;;;;;;;;;;26.10;70.30;;;;;;4998042;28;19922;-86
2022/06/25 19:38:21;;;;;;;;;;;26.10;70.40;;;;;;4996732;28;20008;-87
2022/06/25 19:40:47;;;;;;;;;;;26.10;70.60;;;;;;4995479;28;20068;-86
2022/06/25 19:43:14;;;;;;;;;;;26.10;70.70;;;;;;4999066;28;19922;-86
2022/06/25 19:45:41;;;;;;;;;;;26.10;70.80;;;;;;5002078;28;20005;-84
2022/06/25 19:48:07;;;;;;;;;;;26.10;70.90;;;;;;4999254;28;19976;-86
2022/06/25 19:50:34;;;;;;;;;;;26.10;71.10;;;;;;4996925;28;19926;-87
2022/06/25 19:53:02;;;;;;;;;;;26.10;71.30;;;;;;4996740;28;20337;-87
2022/06/25 19:55:29;;;;;;;;;;;26.10;71.40;;;;;;4995842;28;19971;-86
2022/06/25 19:57:58;;;;;;;;;;;26.10;71.50;;;;;;4995752;28;19980;-88
2022/06/25 20:00:24;;;;;;;;;;;26.10;71.70;;;;;;4995729;28;19976;-86
2022/06/25 20:02:51;;;;;;;;;;;26.10;71.80;;;;;;4995520;28;19926;-86
2022/06/25 20:05:18;;;;;;;;;;;26.10;71.90;;;;;;4995873;28;20020;-86
2022/06/25 20:07:45;;;;;;;;;;;26.10;72.10;;;;;;4995337;28;20021;-87
2022/06/25 20:10:14;;;;;;;;;;;26.10;72.20;;;;;;4995415;28;19921;-87
2022/06/25 20:12:41;;;;;;;;;;;26.10;72.40;;;;;;4997203;28;19921;-87
2022/06/25 20:15:09;;;;;;;;;;;26.10;72.50;;;;;;4996329;28;19922;-86
2022/06/25 20:17:36;;;;;;;;;;;26.10;72.60;;;;;;4997659;28;19922;-87
2022/06/25 20:20:03;;;;;;;;;;;26.10;72.80;;;;;;4995102;28;19922;-87
2022/06/25 20:22:31;;;;;;;;;;;26.10;72.90;;;;;;4994654;28;19922;-84
2022/06/25 20:24:58;;;;;;;;;;;26.10;73.10;;;;;;4995892;28;19928;-84
2022/06/25 20:27:26;;;;;;;;;;;26.10;73.20;;;;;;4998439;28;19921;-83
2022/06/25 20:29:53;;;;;;;;;;;26.10;73.40;;;;;;4995600;28;20444;-84
2022/06/25 20:32:20;;;;;;;;;;;26.10;73.60;;;;;;4995846;28;20463;-84
2022/06/25 20:34:46;;;;;;;;;;;26.10;74.00;;;;;;4996268;28;20020;-84
2022/06/25 20:37:13;;;;;;;;;;;26.10;74.00;;;;;;4997247;28;19957;-84
2022/06/25 20:39:40;;;;;;;;;;;26.10;73.90;;;;;;5000699;28;19922;-83
2022/06/25 20:42:07;;;;;;;;;;;26.10;74.00;;;;;;5000378;28;19985;-83
2022/06/25 20:44:35;;;;;;;;;;;26.10;74.00;;;;;;5002818;28;19921;-83
2022/06/25 20:47:02;;;;;;;;;;;26.10;74.00;;;;;;5001183;28;19922;-83
2022/06/25 20:49:28;;;;;;;;;;;26.10;74.40;;;;;;4998418;28;19925;-84
2022/06/25 20:51:57;;;;;;;;;;;26.10;74.60;;;;;;4996544;28;19980;-84
2022/06/25 20:54:24;;;;;;;;;;;26.10;74.70;;;;;;4997041;28;19922;-84
2022/06/25 20:56:51;;;;;;;;;;;26.10;74.90;;;;;;4999465;28;19921;-83
2022/06/25 20:59:17;;;;;;;;;;;26.10;75.10;;;;;;5000285;28;19996;-83
2022/06/25 21:01:46;;;;;;;;;;;26.10;75.20;;;;;;5000097;28;19943;-84
2022/06/25 21:09:40;;;;;;;;;;;26.10;75.70;;;;;;5005750;28;20001;-82
2022/06/25 21:12:07;;;;;;;;;;;26.10;75.90;;;;;;5005783;28;20032;-83
2022/06/25 21:14:34;;;;;;;;;;;26.10;76.00;;;;;;5005187;28;19929;-83
2022/06/25 21:17:03;;;;;;;;;;;26.10;76.00;;;;;;5006093;28;19961;-84
2022/06/25 21:19:30;;;;;;;;;;;26.10;76.10;;;;;;5010961;28;19933;-83
2022/06/25 21:21:56;;;;;;;;;;;26.00;76.10;;;;;;4999289;28;19922;-87
2022/06/25 21:24:23;;;;;;;;;;;26.00;76.30;;;;;;4999685;28;20372;-87
2022/06/25 21:26:50;;;;;;;;;;;26.10;76.60;;;;;;4998606;28;19944;-87
2022/06/25 21:29:17;;;;;;;;;;;26.10;76.70;;;;;;4999119;28;20344;-86
2022/06/25 21:31:43;;;;;;;;;;;26.10;76.90;;;;;;4998231;28;20293;-86
2022/06/25 21:34:11;;;;;;;;;;;26.10;77.00;;;;;;4997391;28;19976;-86
2022/06/25 21:36:38;;;;;;;;;;;26.10;77.10;;;;;;4998960;28;19922;-83
2022/06/25 21:39:06;;;;;;;;;;;26.10;77.30;;;;;;5001209;28;19972;-83
2022/06/25 21:41:32;;;;;;;;;;;26.10;77.40;;;;;;5000365;28;19922;-84
2022/06/25 21:43:59;;;;;;;;;;;26.10;77.60;;;;;;4999703;28;19973;-84
2022/06/25 21:46:26;;;;;;;;;;;26.10;77.70;;;;;;5000985;28;19972;-83
2022/06/25 21:48:53;;;;;;;;;;;26.10;77.80;;;;;;5001909;28;19921;-86
2022/06/25 21:51:21;;;;;;;;;;;26.10;77.90;;;;;;4999556;28;20430;-84
2022/06/25 21:53:48;;;;;;;;;;;26.10;78.10;;;;;;4998150;28;19972;-83
2022/06/25 21:56:14;;;;;;;;;;;26.10;78.20;;;;;;4996932;28;19928;-83
2022/06/25 21:58:43;;;;;;;;;;;26.10;78.30;;;;;;4997776;28;19922;-83
2022/06/25 22:01:10;;;;;;;;;;;26.10;78.40;;;;;;4996752;28;19928;-84
2022/06/25 22:03:37;;;;;;;;;;;26.10;78.60;;;;;;4996881;28;19922;-83
2022/06/25 22:06:03;;;;;;;;;;;26.00;78.60;;;;;;4996859;28;19944;-83
2022/06/25 22:08:31;;;;;;;;;;;26.10;78.90;;;;;;4997301;28;19944;-83
2022/06/25 22:10:58;;;;;;;;;;;26.10;79.10;;;;;;4996785;28;19928;-83
2022/06/25 22:13:25;;;;;;;;;;;26.10;79.20;;;;;;4996727;28;19928;-83
2022/06/25 22:15:51;;;;;;;;;;;26.00;79.30;;;;;;4996738;28;20005;-83
2022/06/25 22:18:20;;;;;;;;;;;26.10;79.50;;;;;;4996218;28;19921;-83
2022/06/25 22:20:50;;;;;;;;;;;26.10;79.80;;;;;;4996801;28;19921;-83
2022/06/25 22:23:17;;;;;;;;;;;26.10;80.00;;;;;;4996701;28;19922;-83
2022/06/25 22:25:47;;;;;;;;;;;26.10;80.00;;;;;;4996870;28;20336;-83
2022/06/25 22:28:14;;;;;;;;;;;26.10;80.00;;;;;;4996623;28;19922;-83
2022/06/25 22:30:40;;;;;;;;;;;26.10;80.00;;;;;;4996387;28;19922;-83
2022/06/25 22:33:07;;;;;;;;;;;26.00;79.90;;;;;;4996027;28;19921;-84
2022/06/25 22:35:34;;;;;;;;;;;26.00;80.10;;;;;;4996391;28;20394;-84
2022/06/25 22:38:00;;;;;;;;;;;26.10;80.40;;;;;;4996539;28;20483;-83
2022/06/25 22:40:27;;;;;;;;;;;26.10;80.60;;;;;;4996501;28;20285;-83
2022/06/25 22:42:55;;;;;;;;;;;26.00;80.60;;;;;;4996075;28;19925;-84
2022/06/25 22:45:22;;;;;;;;;;;26.10;80.80;;;;;;4995741;28;20491;-83
2022/06/25 22:47:49;;;;;;;;;;;26.10;80.90;;;;;;4995811;28;20457;-84
2022/06/25 22:50:15;;;;;;;;;;;26.10;81.10;;;;;;4996005;28;19928;-83
2022/06/25 22:52:42;;;;;;;;;;;26.10;81.20;;;;;;4996366;28;20017;-84
2022/06/25 22:55:09;;;;;;;;;;;26.10;81.20;;;;;;4995965;28;19953;-83
2022/06/25 22:57:36;;;;;;;;;;;26.10;81.30;;;;;;4996038;28;20013;-83
2022/06/25 23:00:05;;;;;;;;;;;26.10;81.40;;;;;;4996088;28;19922;-83
2022/06/25 23:02:32;;;;;;;;;;;26.00;81.50;;;;;;4995830;28;20016;-83
2022/06/25 23:04:58;;;;;;;;;;;26.00;81.50;;;;;;4996061;28;19981;-83
2022/06/25 23:07:25;;;;;;;;;;;26.00;81.50;;;;;;4995662;28;20448;-83
